sensor_id;sensor_type;location;lat;lon;timestamp;P1;durP1;ratioP1;P2;durP2;ratioP2
8663;SDS011;4369;47.842;13.096;2024-02-16T00:02:14;2.50;;;1.37;;
8663;SDS011;4369;47.842;13.096;2024-02-16T00:04:41;2.00;;;1.30;;
8663;SDS011;4369;47.842;13.096;2024-02-16T00:07:08;1.83;;;1.50;;
8663;SDS011;4369;47.842;13.096;2024-02-16T00:09:35;1.43;;;1.33;;
8663;SDS011;4369;47.842;13.096;2024-02-16T00:12:02;3.20;;;2.90;;
8663;SDS011;4369;47.842;13.096;2024-02-16T00:14:30;5.57;;;4.80;;
8663;SDS011;4369;47.842;13.096;2024-02-16T00:16:57;4.97;;;3.90;;
8663;SDS011;4369;47.842;13.096;2024-02-16T00:19:25;2.67;;;2.30;;
8663;SDS011;4369;47.842;13.096;2024-02-16T00:21:53;3.17;;;2.03;;
8663;SDS011;4369;47.842;13.096;2024-02-16T00:24:20;2.43;;;1.90;;
8663;SDS011;4369;47.842;13.096;2024-02-16T00:26:47;1.90;;;1.60;;
8663;SDS011;4369;47.842;13.096;2024-02-16T00:29:14;1.60;;;1.50;;
8663;SDS011;4369;47.842;13.096;2024-02-16T00:31:41;2.27;;;1.70;;
8663;SDS011;4369;47.842;13.096;2024-02-16T00:34:08;2.40;;;1.50;;
8663;SDS011;4369;47.842;13.096;2024-02-16T00:36:37;2.03;;;1.40;;
8663;SDS011;4369;47.842;13.096;2024-02-16T00:39:04;1.30;;;1.20;;
8663;SDS011;4369;47.842;13.096;2024-02-16T00:41:31;1.30;;;1.20;;
8663;SDS011;4369;47.842;13.096;2024-02-16T00:43:58;2.77;;;1.10;;
8663;SDS011;4369;47.842;13.096;2024-02-16T00:46:24;1.80;;;1.70;;
8663;SDS011;4369;47.842;13.096;2024-02-16T00:48:52;1.70;;;1.40;;
8663;SDS011;4369;47.842;13.096;2024-02-16T00:51:19;1.80;;;1.70;;
8663;SDS011;4369;47.842;13.096;2024-02-16T00:53:49;1.60;;;1.50;;
8663;SDS011;4369;47.842;13.096;2024-02-16T00:56:17;3.93;;;1.83;;
8663;SDS011;4369;47.842;13.096;2024-02-16T00:58:44;5.10;;;1.97;;
8663;SDS011;4369;47.842;13.096;2024-02-16T01:01:11;2.70;;;2.00;;
8663;SDS011;4369;47.842;13.096;2024-02-16T01:03:39;3.93;;;2.80;;
8663;SDS011;4369;47.842;13.096;2024-02-16T01:06:07;5.77;;;4.20;;
8663;SDS011;4369;47.842;13.096;2024-02-16T01:08:35;6.20;;;4.20;;
8663;SDS011;4369;47.842;13.096;2024-02-16T01:11:03;8.80;;;5.53;;
8663;SDS011;4369;47.842;13.096;2024-02-16T01:13:30;6.90;;;4.50;;
8663;SDS011;4369;47.842;13.096;2024-02-16T01:15:58;5.70;;;4.20;;
8663;SDS011;4369;47.842;13.096;2024-02-16T01:18:25;4.70;;;3.57;;
8663;SDS011;4369;47.842;13.096;2024-02-16T01:20:52;5.53;;;3.97;;
8663;SDS011;4369;47.842;13.096;2024-02-16T01:23:19;6.33;;;4.27;;
8663;SDS011;4369;47.842;13.096;2024-02-16T01:25:46;7.47;;;4.10;;
8663;SDS011;4369;47.842;13.096;2024-02-16T01:28:15;5.20;;;3.43;;
8663;SDS011;4369;47.842;13.096;2024-02-16T01:30:42;3.70;;;3.00;;
8663;SDS011;4369;47.842;13.096;2024-02-16T01:33:09;2.90;;;2.70;;
8663;SDS011;4369;47.842;13.096;2024-02-16T01:35:36;2.73;;;2.30;;
8663;SDS011;4369;47.842;13.096;2024-02-16T01:38:03;2.77;;;2.50;;
8663;SDS011;4369;47.842;13.096;2024-02-16T01:40:30;2.60;;;2.20;;
8663;SDS011;4369;47.842;13.096;2024-02-16T01:42:57;2.80;;;2.20;;
8663;SDS011;4369;47.842;13.096;2024-02-16T01:45:26;2.80;;;2.13;;
8663;SDS011;4369;47.842;13.096;2024-02-16T01:47:53;2.50;;;2.30;;
8663;SDS011;4369;47.842;13.096;2024-02-16T01:50:20;2.87;;;2.07;;
8663;SDS011;4369;47.842;13.096;2024-02-16T01:52:48;2.03;;;1.80;;
8663;SDS011;4369;47.842;13.096;2024-02-16T01:55:15;1.97;;;1.83;;
8663;SDS011;4369;47.842;13.096;2024-02-16T01:57:43;2.00;;;1.87;;
8663;SDS011;4369;47.842;13.096;2024-02-16T02:00:11;2.37;;;2.07;;
8663;SDS011;4369;47.842;13.096;2024-02-16T02:02:41;3.17;;;2.33;;
8663;SDS011;4369;47.842;13.096;2024-02-16T02:05:10;2.93;;;2.47;;
8663;SDS011;4369;47.842;13.096;2024-02-16T02:07:38;1.87;;;1.77;;
8663;SDS011;4369;47.842;13.096;2024-02-16T02:10:05;1.80;;;1.70;;
8663;SDS011;4369;47.842;13.096;2024-02-16T02:12:33;2.33;;;1.33;;
8663;SDS011;4369;47.842;13.096;2024-02-16T02:15:00;1.67;;;1.57;;
8663;SDS011;4369;47.842;13.096;2024-02-16T02:17:28;1.93;;;1.83;;
8663;SDS011;4369;47.842;13.096;2024-02-16T02:19:56;2.00;;;1.90;;
8663;SDS011;4369;47.842;13.096;2024-02-16T02:22:24;2.00;;;1.80;;
8663;SDS011;4369;47.842;13.096;2024-02-16T02:24:52;1.90;;;1.80;;
8663;SDS011;4369;47.842;13.096;2024-02-16T02:27:20;1.60;;;1.50;;
8663;SDS011;4369;47.842;13.096;2024-02-16T02:29:47;1.50;;;1.50;;
8663;SDS011;4369;47.842;13.096;2024-02-16T02:32:15;1.50;;;1.40;;
8663;SDS011;4369;47.842;13.096;2024-02-16T02:34:42;2.00;;;1.27;;
8663;SDS011;4369;47.842;13.096;2024-02-16T02:37:09;1.47;;;1.37;;
8663;SDS011;4369;47.842;13.096;2024-02-16T02:39:37;1.50;;;1.40;;
8663;SDS011;4369;47.842;13.096;2024-02-16T02:42:05;1.40;;;1.30;;
8663;SDS011;4369;47.842;13.096;2024-02-16T02:44:33;1.57;;;1.30;;
8663;SDS011;4369;47.842;13.096;2024-02-16T02:47:00;1.53;;;1.30;;
8663;SDS011;4369;47.842;13.096;2024-02-16T02:49:27;1.30;;;1.20;;
8663;SDS011;4369;47.842;13.096;2024-02-16T02:51:54;1.37;;;1.27;;
8663;SDS011;4369;47.842;13.096;2024-02-16T02:54:21;1.37;;;1.27;;
8663;SDS011;4369;47.842;13.096;2024-02-16T02:56:49;2.00;;;1.33;;
8663;SDS011;4369;47.842;13.096;2024-02-16T02:59:16;1.60;;;1.50;;
8663;SDS011;4369;47.842;13.096;2024-02-16T03:01:43;1.97;;;1.60;;
8663;SDS011;4369;47.842;13.096;2024-02-16T03:04:10;3.77;;;1.40;;
8663;SDS011;4369;47.842;13.096;2024-02-16T03:06:37;1.73;;;1.60;;
8663;SDS011;4369;47.842;13.096;2024-02-16T03:09:04;1.27;;;1.10;;
8663;SDS011;4369;47.842;13.096;2024-02-16T03:11:31;1.10;;;1.00;;
8663;SDS011;4369;47.842;13.096;2024-02-16T03:14:00;2.20;;;1.03;;
8663;SDS011;4369;47.842;13.096;2024-02-16T03:16:28;5.63;;;1.47;;
8663;SDS011;4369;47.842;13.096;2024-02-16T03:18:55;1.40;;;1.30;;
8663;SDS011;4369;47.842;13.096;2024-02-16T03:21:22;1.50;;;1.40;;
8663;SDS011;4369;47.842;13.096;2024-02-16T03:23:49;1.57;;;1.47;;
8663;SDS011;4369;47.842;13.096;2024-02-16T03:26:16;3.17;;;1.50;;
8663;SDS011;4369;47.842;13.096;2024-02-16T03:28:44;2.10;;;1.60;;
8663;SDS011;4369;47.842;13.096;2024-02-16T03:31:20;2.20;;;2.00;;
8663;SDS011;4369;47.842;13.096;2024-02-16T03:33:48;2.00;;;1.90;;
8663;SDS011;4369;47.842;13.096;2024-02-16T03:36:16;2.07;;;1.83;;
8663;SDS011;4369;47.842;13.096;2024-02-16T03:38:44;1.93;;;1.83;;
8663;SDS011;4369;47.842;13.096;2024-02-16T03:41:15;2.13;;;1.93;;
8663;SDS011;4369;47.842;13.096;2024-02-16T03:43:45;2.47;;;2.07;;
8663;SDS011;4369;47.842;13.096;2024-02-16T03:46:12;2.70;;;2.40;;
8663;SDS011;4369;47.842;13.096;2024-02-16T03:48:40;2.97;;;2.30;;
8663;SDS011;4369;47.842;13.096;2024-02-16T03:51:07;5.73;;;3.83;;
8663;SDS011;4369;47.842;13.096;2024-02-16T03:53:34;6.13;;;4.43;;
8663;SDS011;4369;47.842;13.096;2024-02-16T03:56:02;7.63;;;4.07;;
8663;SDS011;4369;47.842;13.096;2024-02-16T03:58:31;5.47;;;3.33;;
8663;SDS011;4369;47.842;13.096;2024-02-16T04:00:58;3.00;;;2.70;;
8663;SDS011;4369;47.842;13.096;2024-02-16T04:03:24;2.60;;;2.40;;
8663;SDS011;4369;47.842;13.096;2024-02-16T04:05:53;2.90;;;2.70;;
8663;SDS011;4369;47.842;13.096;2024-02-16T04:08:20;2.30;;;2.10;;
8663;SDS011;4369;47.842;13.096;2024-02-16T04:10:47;4.80;;;3.00;;
8663;SDS011;4369;47.842;13.096;2024-02-16T04:13:14;5.70;;;3.50;;
8663;SDS011;4369;47.842;13.096;2024-02-16T04:15:41;4.67;;;3.13;;
8663;SDS011;4369;47.842;13.096;2024-02-16T04:18:08;7.33;;;4.40;;
8663;SDS011;4369;47.842;13.096;2024-02-16T04:20:35;5.73;;;4.47;;
8663;SDS011;4369;47.842;13.096;2024-02-16T04:23:04;5.83;;;3.70;;
8663;SDS011;4369;47.842;13.096;2024-02-16T04:25:31;3.83;;;3.07;;
8663;SDS011;4369;47.842;13.096;2024-02-16T04:27:58;2.77;;;2.30;;
8663;SDS011;4369;47.842;13.096;2024-02-16T04:30:25;2.57;;;2.37;;
8663;SDS011;4369;47.842;13.096;2024-02-16T04:32:52;2.00;;;1.90;;
8663;SDS011;4369;47.842;13.096;2024-02-16T04:35:19;3.57;;;2.60;;
8663;SDS011;4369;47.842;13.096;2024-02-16T04:37:46;2.03;;;1.93;;
8663;SDS011;4369;47.842;13.096;2024-02-16T04:40:14;2.23;;;2.03;;
8663;SDS011;4369;47.842;13.096;2024-02-16T04:42:41;2.70;;;2.30;;
8663;SDS011;4369;47.842;13.096;2024-02-16T04:45:10;3.83;;;2.40;;
8663;SDS011;4369;47.842;13.096;2024-02-16T04:47:38;5.13;;;2.50;;
8663;SDS011;4369;47.842;13.096;2024-02-16T04:50:05;2.90;;;2.30;;
8663;SDS011;4369;47.842;13.096;2024-02-16T04:52:36;3.30;;;2.50;;
8663;SDS011;4369;47.842;13.096;2024-02-16T04:55:06;2.87;;;2.07;;
8663;SDS011;4369;47.842;13.096;2024-02-16T04:57:34;2.70;;;2.50;;
8663;SDS011;4369;47.842;13.096;2024-02-16T05:00:01;2.33;;;2.13;;
8663;SDS011;4369;47.842;13.096;2024-02-16T05:02:29;2.30;;;2.10;;
8663;SDS011;4369;47.842;13.096;2024-02-16T05:04:56;4.50;;;2.70;;
8663;SDS011;4369;47.842;13.096;2024-02-16T05:07:23;3.20;;;2.90;;
8663;SDS011;4369;47.842;13.096;2024-02-16T05:09:50;3.83;;;2.80;;
8663;SDS011;4369;47.842;13.096;2024-02-16T05:12:21;5.97;;;3.00;;
8663;SDS011;4369;47.842;13.096;2024-02-16T05:14:50;3.10;;;2.80;;
8663;SDS011;4369;47.842;13.096;2024-02-16T05:17:18;3.27;;;2.97;;
8663;SDS011;4369;47.842;13.096;2024-02-16T05:19:46;3.57;;;2.50;;
8663;SDS011;4369;47.842;13.096;2024-02-16T05:22:13;5.20;;;2.80;;
8663;SDS011;4369;47.842;13.096;2024-02-16T05:24:40;3.10;;;2.80;;
8663;SDS011;4369;47.842;13.096;2024-02-16T05:27:07;4.73;;;3.87;;
8663;SDS011;4369;47.842;13.096;2024-02-16T05:29:35;8.97;;;6.70;;
8663;SDS011;4369;47.842;13.096;2024-02-16T05:32:04;10.50;;;7.23;;
8663;SDS011;4369;47.842;13.096;2024-02-16T05:34:31;12.67;;;8.10;;
8663;SDS011;4369;47.842;13.096;2024-02-16T05:37:03;10.60;;;7.97;;
8663;SDS011;4369;47.842;13.096;2024-02-16T05:39:31;14.13;;;8.10;;
8663;SDS011;4369;47.842;13.096;2024-02-16T05:42:00;10.90;;;7.73;;
8663;SDS011;4369;47.842;13.096;2024-02-16T05:44:28;10.43;;;7.77;;
8663;SDS011;4369;47.842;13.096;2024-02-16T05:46:57;12.43;;;7.80;;
8663;SDS011;4369;47.842;13.096;2024-02-16T05:49:26;14.07;;;8.67;;
8663;SDS011;4369;47.842;13.096;2024-02-16T05:51:53;14.70;;;8.53;;
8663;SDS011;4369;47.842;13.096;2024-02-16T05:54:40;14.63;;;9.07;;
8663;SDS011;4369;47.842;13.096;2024-02-16T05:57:07;15.50;;;9.30;;
8663;SDS011;4369;47.842;13.096;2024-02-16T05:59:34;13.50;;;8.80;;
8663;SDS011;4369;47.842;13.096;2024-02-16T06:02:03;13.50;;;8.97;;
8663;SDS011;4369;47.842;13.096;2024-02-16T06:04:32;11.07;;;7.93;;
8663;SDS011;4369;47.842;13.096;2024-02-16T06:06:59;8.93;;;7.00;;
8663;SDS011;4369;47.842;13.096;2024-02-16T06:09:26;17.97;;;11.50;;
8663;SDS011;4369;47.842;13.096;2024-02-16T06:12:00;20.70;;;12.37;;
8663;SDS011;4369;47.842;13.096;2024-02-16T06:14:29;19.37;;;12.30;;
8663;SDS011;4369;47.842;13.096;2024-02-16T06:16:56;20.83;;;13.10;;
8663;SDS011;4369;47.842;13.096;2024-02-16T06:19:24;19.90;;;12.53;;
8663;SDS011;4369;47.842;13.096;2024-02-16T06:21:52;17.97;;;11.93;;
8663;SDS011;4369;47.842;13.096;2024-02-16T06:24:20;15.77;;;10.50;;
8663;SDS011;4369;47.842;13.096;2024-02-16T06:26:48;14.17;;;10.23;;
8663;SDS011;4369;47.842;13.096;2024-02-16T06:29:15;48.17;;;26.43;;
8663;SDS011;4369;47.842;13.096;2024-02-16T06:31:42;35.13;;;22.83;;
8663;SDS011;4369;47.842;13.096;2024-02-16T06:34:08;20.17;;;14.83;;
8663;SDS011;4369;47.842;13.096;2024-02-16T06:36:35;15.07;;;10.60;;
8663;SDS011;4369;47.842;13.096;2024-02-16T06:39:04;11.67;;;8.67;;
8663;SDS011;4369;47.842;13.096;2024-02-16T06:41:31;11.60;;;9.40;;
8663;SDS011;4369;47.842;13.096;2024-02-16T06:43:58;12.97;;;8.77;;
8663;SDS011;4369;47.842;13.096;2024-02-16T06:46:25;14.53;;;9.50;;
8663;SDS011;4369;47.842;13.096;2024-02-16T06:48:52;15.83;;;9.97;;
8663;SDS011;4369;47.842;13.096;2024-02-16T06:51:21;12.33;;;8.73;;
8663;SDS011;4369;47.842;13.096;2024-02-16T06:53:49;14.83;;;9.80;;
8663;SDS011;4369;47.842;13.096;2024-02-16T06:56:18;15.17;;;9.13;;
8663;SDS011;4369;47.842;13.096;2024-02-16T06:58:45;17.30;;;9.83;;
8663;SDS011;4369;47.842;13.096;2024-02-16T07:01:12;13.20;;;8.60;;
8663;SDS011;4369;47.842;13.096;2024-02-16T07:03:39;13.07;;;8.63;;
8663;SDS011;4369;47.842;13.096;2024-02-16T07:06:06;13.17;;;9.07;;
8663;SDS011;4369;47.842;13.096;2024-02-16T07:08:35;13.40;;;10.30;;
8663;SDS011;4369;47.842;13.096;2024-02-16T07:11:03;9.77;;;8.60;;
8663;SDS011;4369;47.842;13.096;2024-02-16T07:13:31;10.43;;;8.40;;
8663;SDS011;4369;47.842;13.096;2024-02-16T07:15:59;9.50;;;7.80;;
8663;SDS011;4369;47.842;13.096;2024-02-16T07:18:26;9.43;;;7.60;;
8663;SDS011;4369;47.842;13.096;2024-02-16T07:20:53;8.90;;;7.73;;
8663;SDS011;4369;47.842;13.096;2024-02-16T07:23:20;11.17;;;8.20;;
8663;SDS011;4369;47.842;13.096;2024-02-16T07:25:46;10.87;;;8.23;;
8663;SDS011;4369;47.842;13.096;2024-02-16T07:28:14;16.13;;;8.80;;
8663;SDS011;4369;47.842;13.096;2024-02-16T07:30:43;10.63;;;8.30;;
8663;SDS011;4369;47.842;13.096;2024-02-16T07:33:10;10.30;;;8.07;;
8663;SDS011;4369;47.842;13.096;2024-02-16T07:35:37;18.53;;;9.43;;
8663;SDS011;4369;47.842;13.096;2024-02-16T07:38:04;11.93;;;8.73;;
8663;SDS011;4369;47.842;13.096;2024-02-16T07:40:32;15.47;;;11.57;;
8663;SDS011;4369;47.842;13.096;2024-02-16T07:42:59;17.10;;;11.87;;
8663;SDS011;4369;47.842;13.096;2024-02-16T07:45:27;18.87;;;11.67;;
8663;SDS011;4369;47.842;13.096;2024-02-16T07:47:55;18.70;;;12.20;;
8663;SDS011;4369;47.842;13.096;2024-02-16T07:50:22;16.23;;;10.77;;
8663;SDS011;4369;47.842;13.096;2024-02-16T07:52:49;14.43;;;10.27;;
8663;SDS011;4369;47.842;13.096;2024-02-16T07:55:17;12.27;;;8.17;;
8663;SDS011;4369;47.842;13.096;2024-02-16T07:57:45;11.33;;;9.37;;
8663;SDS011;4369;47.842;13.096;2024-02-16T08:00:12;14.03;;;9.83;;
8663;SDS011;4369;47.842;13.096;2024-02-16T08:02:41;14.90;;;9.67;;
8663;SDS011;4369;47.842;13.096;2024-02-16T08:05:10;13.23;;;9.37;;
8663;SDS011;4369;47.842;13.096;2024-02-16T08:07:38;11.20;;;8.63;;
8663;SDS011;4369;47.842;13.096;2024-02-16T08:10:06;11.57;;;8.47;;
8663;SDS011;4369;47.842;13.096;2024-02-16T08:12:33;11.13;;;8.80;;
8663;SDS011;4369;47.842;13.096;2024-02-16T08:15:02;12.93;;;9.50;;
8663;SDS011;4369;47.842;13.096;2024-02-16T08:17:32;10.10;;;8.37;;
8663;SDS011;4369;47.842;13.096;2024-02-16T08:19:59;12.60;;;8.20;;
8663;SDS011;4369;47.842;13.096;2024-02-16T08:22:27;13.30;;;8.57;;
8663;SDS011;4369;47.842;13.096;2024-02-16T08:24:54;8.80;;;7.87;;
8663;SDS011;4369;47.842;13.096;2024-02-16T08:27:21;8.10;;;5.90;;
8663;SDS011;4369;47.842;13.096;2024-02-16T08:29:49;7.80;;;6.10;;
8663;SDS011;4369;47.842;13.096;2024-02-16T08:32:16;6.27;;;5.47;;
8663;SDS011;4369;47.842;13.096;2024-02-16T08:34:45;7.13;;;5.10;;
8663;SDS011;4369;47.842;13.096;2024-02-16T08:37:13;7.63;;;4.50;;
8663;SDS011;4369;47.842;13.096;2024-02-16T08:39:43;6.83;;;5.10;;
8663;SDS011;4369;47.842;13.096;2024-02-16T08:42:09;7.60;;;4.03;;
8663;SDS011;4369;47.842;13.096;2024-02-16T08:44:37;5.37;;;4.13;;
8663;SDS011;4369;47.842;13.096;2024-02-16T08:47:05;3.60;;;3.30;;
8663;SDS011;4369;47.842;13.096;2024-02-16T08:49:32;4.93;;;3.60;;
8663;SDS011;4369;47.842;13.096;2024-02-16T08:52:00;4.43;;;3.50;;
8663;SDS011;4369;47.842;13.096;2024-02-16T08:54:28;5.33;;;3.50;;
8663;SDS011;4369;47.842;13.096;2024-02-16T08:56:56;5.07;;;3.47;;
8663;SDS011;4369;47.842;13.096;2024-02-16T08:59:23;6.50;;;4.10;;
8663;SDS011;4369;47.842;13.096;2024-02-16T09:01:50;4.73;;;3.53;;
8663;SDS011;4369;47.842;13.096;2024-02-16T09:04:17;4.00;;;3.10;;
8663;SDS011;4369;47.842;13.096;2024-02-16T09:06:44;4.27;;;2.50;;
8663;SDS011;4369;47.842;13.096;2024-02-16T09:09:11;3.70;;;3.23;;
8663;SDS011;4369;47.842;13.096;2024-02-16T09:11:51;3.53;;;2.80;;
8663;SDS011;4369;47.842;13.096;2024-02-16T09:14:18;2.80;;;2.00;;
8663;SDS011;4369;47.842;13.096;2024-02-16T09:16:45;3.60;;;2.27;;
8663;SDS011;4369;47.842;13.096;2024-02-16T09:19:16;2.30;;;2.03;;
8663;SDS011;4369;47.842;13.096;2024-02-16T09:21:43;3.83;;;2.50;;
8663;SDS011;4369;47.842;13.096;2024-02-16T09:24:10;3.33;;;2.00;;
8663;SDS011;4369;47.842;13.096;2024-02-16T09:26:42;3.73;;;2.60;;
8663;SDS011;4369;47.842;13.096;2024-02-16T09:29:12;5.60;;;2.60;;
8663;SDS011;4369;47.842;13.096;2024-02-16T09:31:39;4.80;;;2.67;;
8663;SDS011;4369;47.842;13.096;2024-02-16T09:34:06;5.40;;;2.70;;
8663;SDS011;4369;47.842;13.096;2024-02-16T09:36:34;2.90;;;2.20;;
8663;SDS011;4369;47.842;13.096;2024-02-16T09:39:02;2.27;;;1.63;;
8663;SDS011;4369;47.842;13.096;2024-02-16T09:41:29;2.00;;;1.50;;
8663;SDS011;4369;47.842;13.096;2024-02-16T09:44:00;2.20;;;1.80;;
8663;SDS011;4369;47.842;13.096;2024-02-16T09:46:29;3.67;;;1.70;;
8663;SDS011;4369;47.842;13.096;2024-02-16T09:48:57;1.50;;;1.40;;
8663;SDS011;4369;47.842;13.096;2024-02-16T09:51:29;3.70;;;1.87;;
8663;SDS011;4369;47.842;13.096;2024-02-16T09:53:56;2.27;;;1.43;;
8663;SDS011;4369;47.842;13.096;2024-02-16T09:56:23;1.70;;;1.60;;
8663;SDS011;4369;47.842;13.096;2024-02-16T09:58:50;3.60;;;1.70;;
8663;SDS011;4369;47.842;13.096;2024-02-16T10:01:18;1.87;;;1.63;;
8663;SDS011;4369;47.842;13.096;2024-02-16T10:03:48;3.37;;;1.37;;
8663;SDS011;4369;47.842;13.096;2024-02-16T10:06:15;5.20;;;1.70;;
8663;SDS011;4369;47.842;13.096;2024-02-16T10:08:48;2.73;;;1.90;;
8663;SDS011;4369;47.842;13.096;2024-02-16T10:11:17;2.70;;;1.33;;
8663;SDS011;4369;47.842;13.096;2024-02-16T10:13:55;4.27;;;1.70;;
8663;SDS011;4369;47.842;13.096;2024-02-16T10:16:23;5.17;;;1.73;;
8663;SDS011;4369;47.842;13.096;2024-02-16T10:18:51;2.70;;;1.60;;
8663;SDS011;4369;47.842;13.096;2024-02-16T10:21:24;3.07;;;1.87;;
8663;SDS011;4369;47.842;13.096;2024-02-16T10:23:59;2.90;;;1.60;;
8663;SDS011;4369;47.842;13.096;2024-02-16T10:26:27;3.03;;;1.90;;
8663;SDS011;4369;47.842;13.096;2024-02-16T10:28:55;3.63;;;2.10;;
8663;SDS011;4369;47.842;13.096;2024-02-16T10:31:22;3.23;;;1.43;;
8663;SDS011;4369;47.842;13.096;2024-02-16T10:33:55;2.30;;;1.90;;
8663;SDS011;4369;47.842;13.096;2024-02-16T10:36:24;3.00;;;1.70;;
8663;SDS011;4369;47.842;13.096;2024-02-16T10:38:53;5.27;;;2.00;;
8663;SDS011;4369;47.842;13.096;2024-02-16T10:41:22;1.67;;;1.53;;
8663;SDS011;4369;47.842;13.096;2024-02-16T10:43:54;1.83;;;1.63;;
8663;SDS011;4369;47.842;13.096;2024-02-16T10:46:21;1.70;;;1.60;;
8663;SDS011;4369;47.842;13.096;2024-02-16T10:48:50;2.33;;;1.73;;
8663;SDS011;4369;47.842;13.096;2024-02-16T10:51:19;3.20;;;1.90;;
8663;SDS011;4369;47.842;13.096;2024-02-16T10:54:03;1.63;;;1.30;;
8663;SDS011;4369;47.842;13.096;2024-02-16T10:56:34;2.43;;;1.33;;
8663;SDS011;4369;47.842;13.096;2024-02-16T10:59:02;5.17;;;1.70;;
8663;SDS011;4369;47.842;13.096;2024-02-16T11:01:32;2.07;;;1.40;;
8663;SDS011;4369;47.842;13.096;2024-02-16T11:04:03;1.87;;;1.13;;
8663;SDS011;4369;47.842;13.096;2024-02-16T11:06:45;2.43;;;1.30;;
8663;SDS011;4369;47.842;13.096;2024-02-16T11:09:22;5.47;;;1.53;;
8663;SDS011;4369;47.842;13.096;2024-02-16T11:11:52;3.87;;;1.63;;
8663;SDS011;4369;47.842;13.096;2024-02-16T11:14:20;2.10;;;1.80;;
8663;SDS011;4369;47.842;13.096;2024-02-16T11:16:48;4.10;;;2.30;;
8663;SDS011;4369;47.842;13.096;2024-02-16T11:19:16;3.10;;;2.13;;
8663;SDS011;4369;47.842;13.096;2024-02-16T11:24:32;3.87;;;2.70;;
8663;SDS011;4369;47.842;13.096;2024-02-16T11:27:03;2.83;;;2.55;;
8663;SDS011;4369;47.842;13.096;2024-02-16T11:29:31;3.10;;;2.05;;
8663;SDS011;4369;47.842;13.096;2024-02-16T11:31:59;2.58;;;2.38;;
8663;SDS011;4369;47.842;13.096;2024-02-16T11:34:27;3.13;;;2.40;;
8663;SDS011;4369;47.842;13.096;2024-02-16T11:36:55;3.75;;;2.60;;
8663;SDS011;4369;47.842;13.096;2024-02-16T11:39:24;3.13;;;2.67;;
8663;SDS011;4369;47.842;13.096;2024-02-16T11:42:01;3.72;;;2.85;;
8663;SDS011;4369;47.842;13.096;2024-02-16T11:44:29;2.70;;;2.50;;
8663;SDS011;4369;47.842;13.096;2024-02-16T11:46:57;3.42;;;2.88;;
8663;SDS011;4369;47.842;13.096;2024-02-16T11:49:24;2.42;;;2.25;;
8663;SDS011;4369;47.842;13.096;2024-02-16T11:51:51;2.95;;;2.60;;
8663;SDS011;4369;47.842;13.096;2024-02-16T11:54:18;2.83;;;2.40;;
8663;SDS011;4369;47.842;13.096;2024-02-16T11:56:46;3.22;;;2.50;;
8663;SDS011;4369;47.842;13.096;2024-02-16T11:59:16;2.67;;;2.47;;
8663;SDS011;4369;47.842;13.096;2024-02-16T12:01:50;2.83;;;2.60;;
8663;SDS011;4369;47.842;13.096;2024-02-16T12:04:21;4.38;;;2.72;;
8663;SDS011;4369;47.842;13.096;2024-02-16T12:06:52;2.75;;;2.55;;
8663;SDS011;4369;47.842;13.096;2024-02-16T12:09:21;2.88;;;2.60;;
8663;SDS011;4369;47.842;13.096;2024-02-16T12:11:51;3.80;;;2.97;;
8663;SDS011;4369;47.842;13.096;2024-02-16T12:14:20;2.83;;;2.58;;
8663;SDS011;4369;47.842;13.096;2024-02-16T12:16:48;4.65;;;2.50;;
8663;SDS011;4369;47.842;13.096;2024-02-16T12:19:16;3.00;;;2.40;;
8663;SDS011;4369;47.842;13.096;2024-02-16T12:21:48;2.50;;;2.30;;
8663;SDS011;4369;47.842;13.096;2024-02-16T12:24:15;2.80;;;2.50;;
8663;SDS011;4369;47.842;13.096;2024-02-16T12:26:42;2.60;;;2.40;;
8663;SDS011;4369;47.842;13.096;2024-02-16T12:29:10;2.90;;;2.70;;
8663;SDS011;4369;47.842;13.096;2024-02-16T12:31:38;2.85;;;2.65;;
8663;SDS011;4369;47.842;13.096;2024-02-16T12:34:06;3.08;;;2.63;;
8663;SDS011;4369;47.842;13.096;2024-02-16T12:36:33;2.53;;;2.33;;
8663;SDS011;4369;47.842;13.096;2024-02-16T12:39:00;2.90;;;2.70;;
8663;SDS011;4369;47.842;13.096;2024-02-16T12:41:28;2.65;;;2.45;;
8663;SDS011;4369;47.842;13.096;2024-02-16T12:43:55;3.03;;;2.72;;
8663;SDS011;4369;47.842;13.096;2024-02-16T12:46:24;3.72;;;2.60;;
8663;SDS011;4369;47.842;13.096;2024-02-16T12:48:51;3.00;;;2.80;;
8663;SDS011;4369;47.842;13.096;2024-02-16T12:51:18;2.72;;;2.53;;
8663;SDS011;4369;47.842;13.096;2024-02-16T12:53:46;2.80;;;2.60;;
8663;SDS011;4369;47.842;13.096;2024-02-16T12:56:12;3.08;;;2.55;;
8663;SDS011;4369;47.842;13.096;2024-02-16T12:58:40;3.10;;;2.80;;
8663;SDS011;4369;47.842;13.096;2024-02-16T13:01:07;3.70;;;2.72;;
8663;SDS011;4369;47.842;13.096;2024-02-16T13:03:36;2.90;;;2.70;;
8663;SDS011;4369;47.842;13.096;2024-02-16T13:06:04;2.80;;;2.60;;
8663;SDS011;4369;47.842;13.096;2024-02-16T13:08:31;3.40;;;2.83;;
8663;SDS011;4369;47.842;13.096;2024-02-16T13:10:58;3.10;;;2.63;;
8663;SDS011;4369;47.842;13.096;2024-02-16T13:13:26;2.92;;;2.72;;
8663;SDS011;4369;47.842;13.096;2024-02-16T13:15:53;3.22;;;2.90;;
8663;SDS011;4369;47.842;13.096;2024-02-16T13:18:21;5.35;;;2.95;;
8663;SDS011;4369;47.842;13.096;2024-02-16T13:20:49;4.55;;;3.13;;
8663;SDS011;4369;47.842;13.096;2024-02-16T13:23:16;4.50;;;3.40;;
8663;SDS011;4369;47.842;13.096;2024-02-16T13:25:43;3.53;;;3.22;;
8663;SDS011;4369;47.842;13.096;2024-02-16T13:28:10;3.08;;;2.88;;
8663;SDS011;4369;47.842;13.096;2024-02-16T13:30:37;3.20;;;2.90;;
8663;SDS011;4369;47.842;13.096;2024-02-16T13:33:04;5.28;;;3.25;;
8663;SDS011;4369;47.842;13.096;2024-02-16T13:35:33;3.63;;;3.33;;
8663;SDS011;4369;47.842;13.096;2024-02-16T13:38:02;3.60;;;3.30;;
8663;SDS011;4369;47.842;13.096;2024-02-16T13:40:29;3.45;;;3.17;;
8663;SDS011;4369;47.842;13.096;2024-02-16T13:42:58;3.95;;;3.58;;
8663;SDS011;4369;47.842;13.096;2024-02-16T13:45:27;4.97;;;3.88;;
8663;SDS011;4369;47.842;13.096;2024-02-16T13:47:55;4.45;;;3.63;;
8663;SDS011;4369;47.842;13.096;2024-02-16T13:50:23;4.68;;;3.40;;
8663;SDS011;4369;47.842;13.096;2024-02-16T13:52:50;5.45;;;3.47;;
8663;SDS011;4369;47.842;13.096;2024-02-16T13:55:18;4.72;;;3.38;;
8663;SDS011;4369;47.842;13.096;2024-02-16T13:57:45;5.55;;;3.60;;
8663;SDS011;4369;47.842;13.096;2024-02-16T14:00:13;4.03;;;3.63;;
8663;SDS011;4369;47.842;13.096;2024-02-16T14:02:41;4.60;;;4.20;;
8663;SDS011;4369;47.842;13.096;2024-02-16T14:05:09;4.80;;;3.97;;
8663;SDS011;4369;47.842;13.096;2024-02-16T14:07:37;4.75;;;3.95;;
8663;SDS011;4369;47.842;13.096;2024-02-16T14:10:04;4.97;;;4.00;;
8663;SDS011;4369;47.842;13.096;2024-02-16T14:12:33;4.20;;;3.50;;
8663;SDS011;4369;47.842;13.096;2024-02-16T14:15:01;5.47;;;4.10;;
8663;SDS011;4369;47.842;13.096;2024-02-16T14:17:28;5.15;;;3.97;;
8663;SDS011;4369;47.842;13.096;2024-02-16T14:19:55;6.72;;;3.97;;
8663;SDS011;4369;47.842;13.096;2024-02-16T14:22:23;4.80;;;4.30;;
8663;SDS011;4369;47.842;13.096;2024-02-16T14:24:50;4.18;;;3.78;;
8663;SDS011;4369;47.842;13.096;2024-02-16T14:27:17;4.65;;;4.18;;
8663;SDS011;4369;47.842;13.096;2024-02-16T14:29:45;4.47;;;3.90;;
8663;SDS011;4369;47.842;13.096;2024-02-16T14:32:12;4.90;;;4.40;;
8663;SDS011;4369;47.842;13.096;2024-02-16T14:34:39;5.80;;;4.43;;
8663;SDS011;4369;47.842;13.096;2024-02-16T14:37:07;6.00;;;4.30;;
8663;SDS011;4369;47.842;13.096;2024-02-16T14:39:34;5.45;;;4.57;;
8663;SDS011;4369;47.842;13.096;2024-02-16T14:42:01;5.32;;;4.30;;
8663;SDS011;4369;47.842;13.096;2024-02-16T14:44:28;4.82;;;4.40;;
8663;SDS011;4369;47.842;13.096;2024-02-16T14:46:57;4.70;;;4.20;;
8663;SDS011;4369;47.842;13.096;2024-02-16T14:49:23;5.38;;;4.43;;
8663;SDS011;4369;47.842;13.096;2024-02-16T14:51:51;6.82;;;4.47;;
8663;SDS011;4369;47.842;13.096;2024-02-16T14:54:19;5.65;;;4.53;;
8663;SDS011;4369;47.842;13.096;2024-02-16T14:56:46;6.45;;;4.72;;
8663;SDS011;4369;47.842;13.096;2024-02-16T14:59:13;6.50;;;4.22;;
8663;SDS011;4369;47.842;13.096;2024-02-16T15:01:40;4.97;;;4.45;;
8663;SDS011;4369;47.842;13.096;2024-02-16T15:04:09;4.93;;;4.43;;
8663;SDS011;4369;47.842;13.096;2024-02-16T15:06:36;4.97;;;4.47;;